Time;durP1;ratioP1;P1;durP2;ratioP2;P2;SDS_P1;SDS_P2;PMS_P1;PMS_P2;Temp;Humidity;BMP_temperature;BMP_pressure;BME280_temperature;BME280_humidity;BME280_pressure;Samples;Min_cycle;Max_cycle;Signal;HPM_P1;HPM_P2
2022/06/27 00:00:17;;;;;;;2.60;1.92;;;14.90;99.90;;;;;;5228582;28;20013;-76
2022/06/27 00:02:48;;;;;;;3.20;2.33;;;15.00;99.90;;;;;;5228581;28;20166;-75
2022/06/27 00:05:19;;;;;;;3.15;2.08;;;15.10;99.90;;;;;;5228523;28;20103;-77
2022/06/27 00:07:50;;;;;;;2.20;2.00;;;15.20;99.90;;;;;;5228331;28;20025;-74
2022/06/27 00:10:21;;;;;;;2.50;1.75;;;15.20;99.90;;;;;;5228454;28;20036;-76
2022/06/27 00:12:52;;;;;;;2.60;2.10;;;15.00;99.90;;;;;;5228513;28;20043;-75
2022/06/27 00:15:23;;;;;;;2.15;1.73;;;15.20;99.90;;;;;;5228232;28;20025;-75
2022/06/27 00:17:54;;;;;;;4.43;1.90;;;14.90;99.90;;;;;;5227579;28;20029;-75
2022/06/27 00:20:25;;;;;;;3.33;2.80;;;14.80;99.90;;;;;;5228331;28;20484;-76
2022/06/27 00:22:56;;;;;;;4.32;2.80;;;14.70;99.90;;;;;;5228272;28;20036;-75
2022/06/27 00:25:27;;;;;;;4.40;3.25;;;14.60;99.90;;;;;;5227942;28;20029;-75
2022/06/27 00:27:57;;;;;;;3.75;2.75;;;14.70;99.90;;;;;;5228036;28;20053;-81
2022/06/27 00:30:29;;;;;;;4.00;2.85;;;14.90;99.90;;;;;;5228264;28;20021;-81
2022/06/27 00:32:59;;;;;;;4.25;2.70;;;14.70;99.90;;;;;;5228124;28;20354;-75
2022/06/27 00:35:32;;;;;;;8.13;3.25;;;14.90;99.90;;;;;;5226582;28;20036;-76
2022/06/27 00:38:03;;;;;;;3.20;2.78;;;14.80;99.90;;;;;;5226533;28;20035;-75
2022/06/27 00:40:33;;;;;;;4.88;2.80;;;14.80;99.90;;;;;;5228003;28;20467;-75
2022/06/27 00:43:04;;;;;;;3.13;2.55;;;14.60;99.90;;;;;;5228016;28;20104;-82
2022/06/27 00:45:35;;;;;;;4.05;2.58;;;15.00;99.90;;;;;;5227810;28;20116;-82
2022/06/27 00:48:06;;;;;;;3.70;2.42;;;14.80;99.90;;;;;;5227758;28;20013;-81
2022/06/27 00:50:38;;;;;;;5.00;2.30;;;14.70;99.90;;;;;;5227838;28;20538;-74
2022/06/27 00:53:10;;;;;;;4.68;2.80;;;14.90;99.90;;;;;;5227670;28;20092;-79
2022/06/27 00:55:41;;;;;;;4.78;2.70;;;15.00;99.90;;;;;;5227538;28;20087;-78
2022/06/27 00:58:12;;;;;;;5.28;2.65;;;14.60;99.90;;;;;;5227624;28;20457;-75
2022/06/27 01:00:43;;;;;;;5.18;2.95;;;14.70;99.90;;;;;;5226596;28;20100;-75
2022/06/27 01:03:14;;;;;;;3.95;3.25;;;14.90;99.90;;;;;;5227898;28;20082;-75
2022/06/27 01:05:51;;;;;;;3.53;2.75;;;14.70;99.90;;;;;;5227517;28;20025;-75
2022/06/27 01:08:25;;;;;;;4.25;2.78;;;14.70;99.90;;;;;;5227780;28;20063;-75
2022/06/27 01:10:56;;;;;;;4.45;3.13;;;14.80;99.90;;;;;;5227514;28;20021;-81
2022/06/27 01:13:27;;;;;;;5.43;3.20;;;14.40;99.90;;;;;;5227656;28;20033;-75
2022/06/27 01:15:58;;;;;;;3.72;2.47;;;14.70;99.90;;;;;;5227612;28;20389;-76
2022/06/27 01:18:29;;;;;;;5.07;2.88;;;14.90;99.90;;;;;;5227575;28;20396;-79
2022/06/27 01:21:00;;;;;;;5.07;3.33;;;14.90;99.90;;;;;;5227652;28;20051;-82
2022/06/27 01:23:32;;;;;;;5.65;3.60;;;14.60;99.90;;;;;;5227332;28;20380;-81
2022/06/27 01:26:03;;;;;;;5.28;3.53;;;14.40;99.90;;;;;;5227054;28;20063;-75
2022/06/27 01:28:34;;;;;;;4.05;2.92;;;14.30;99.90;;;;;;5229610;28;20111;-82
2022/06/27 01:31:05;;;;;;;5.13;3.58;;;14.60;99.90;;;;;;5231766;28;20052;-75
2022/06/27 01:33:36;;;;;;;5.55;3.70;;;14.50;99.90;;;;;;5231338;28;20457;-75
2022/06/27 01:38:56;;;;;;;6.22;3.53;;;14.70;99.90;;;;;;5231552;28;20028;-82
2022/06/27 01:41:27;;;;;;;8.25;3.72;;;14.60;99.90;;;;;;5231220;28;20033;-75
2022/06/27 01:43:58;;;;;;;4.93;2.92;;;14.80;99.90;;;;;;5231248;28;20047;-81
2022/06/27 01:46:45;;;;;;;7.95;3.70;;;14.50;99.90;;;;;;5231395;28;20036;-79
2022/06/27 01:49:17;;;;;;;4.93;3.50;;;14.30;99.90;;;;;;5231343;28;20071;-82
2022/06/27 01:51:49;;;;;;;6.88;3.40;;;14.20;99.90;;;;;;5231186;28;20028;-82
2022/06/27 01:54:22;;;;;;;5.82;3.80;;;14.30;99.90;;;;;;5231113;28;20078;-74
2022/06/27 01:56:54;;;;;;;6.32;3.78;;;14.30;99.90;;;;;;5230797;28;20033;-76
2022/06/27 01:59:27;;;;;;;7.30;3.88;;;14.40;99.90;;;;;;5231038;28;20134;-75
2022/06/27 02:01:59;;;;;;;6.28;3.75;;;14.40;99.90;;;;;;5230898;28;20057;-82
2022/06/27 02:04:31;;;;;;;5.53;3.50;;;14.40;99.90;;;;;;5230916;28;20001;-76
2022/06/27 02:07:03;;;;;;;6.10;3.55;;;14.40;99.90;;;;;;5230903;28;20053;-76
2022/06/27 02:09:34;;;;;;;5.72;3.50;;;14.40;99.90;;;;;;5230756;28;20476;-81
2022/06/27 02:12:22;;;;;;;5.75;3.95;;;14.20;99.90;;;;;;5230870;28;20025;-75
2022/06/27 02:14:54;;;;;;;5.45;3.30;;;14.20;99.90;;;;;;5230970;28;20446;-75
2022/06/27 02:17:24;;;;;;;4.75;3.78;;;14.20;99.90;;;;;;5230621;28;20088;-75
2022/06/27 02:19:55;;;;;;;5.75;3.42;;;14.20;99.90;;;;;;5230542;28;20033;-82
2022/06/27 02:22:29;;;;;;;4.60;3.08;;;14.50;99.90;;;;;;5230463;28;20021;-75
2022/06/27 02:25:00;;;;;;;3.15;2.80;;;14.30;99.90;;;;;;5230476;28;20039;-75
2022/06/27 02:27:33;;;;;;;4.85;3.50;;;14.00;99.90;;;;;;5230252;28;20489;-76
2022/06/27 02:30:04;;;;;;;4.22;3.38;;;14.20;99.90;;;;;;5230531;28;20029;-75
2022/06/27 02:32:36;;;;;;;3.58;3.10;;;14.30;99.90;;;;;;5230384;28;20028;-82
2022/06/27 02:35:07;;;;;;;4.70;3.75;;;14.20;99.90;;;;;;5230175;28;20535;-82
2022/06/27 02:37:42;;;;;;;10.05;3.13;;;13.90;99.90;;;;;;5230520;28;20033;-82
2022/06/27 02:40:14;;;;;;;3.92;3.30;;;13.90;99.90;;;;;;5229419;28;20053;-75
2022/06/27 02:42:45;;;;;;;4.57;3.63;;;14.20;99.90;;;;;;5230209;28;20032;-82
2022/06/27 02:45:16;;;;;;;7.03;3.50;;;14.30;99.90;;;;;;5228922;28;20035;-81
2022/06/27 02:47:49;;;;;;;5.43;2.97;;;14.30;99.90;;;;;;5230063;28;20111;-75
2022/06/27 02:50:22;;;;;;;4.43;3.30;;;14.20;99.90;;;;;;5230215;28;20025;-75
2022/06/27 02:52:56;;;;;;;5.55;3.03;;;14.10;99.90;;;;;;5229821;28;20021;-75
2022/06/27 02:55:31;;;;;;;3.95;3.40;;;14.30;99.90;;;;;;5229609;28;20120;-82
2022/06/27 02:58:21;;;;;;;4.55;3.20;;;14.40;99.90;;;;;;5229760;28;20086;-75
2022/06/27 03:00:54;;;;;;;;;;;14.60;99.90;;;;;;5230492;28;20044;-76
2022/06/27 03:03:25;;;;;;;5.57;4.18;;;14.20;99.90;;;;;;5229865;28;20229;-81
2022/06/27 03:06:08;;;;;;;5.70;3.35;;;14.00;99.90;;;;;;5229570;28;20021;-81
2022/06/27 03:08:44;;;;;;;4.20;3.25;;;14.30;99.90;;;;;;5229920;28;20394;-77
2022/06/27 03:11:17;;;;;;;4.30;3.25;;;14.50;99.90;;;;;;5229572;28;20036;-82
2022/06/27 03:13:50;;;;;;;5.00;3.28;;;14.60;99.90;;;;;;5229321;28;20025;-75
2022/06/27 03:16:22;;;;;;;6.32;3.55;;;14.20;99.90;;;;;;5229377;28;20037;-74
2022/06/27 03:18:53;;;;;;;4.43;3.35;;;14.30;99.90;;;;;;5229183;28;20049;-75
2022/06/27 03:21:24;;;;;;;6.15;3.60;;;14.40;99.90;;;;;;5229303;28;20056;-82
2022/06/27 03:23:55;;;;;;;5.35;3.47;;;14.70;99.90;;;;;;5229468;28;20025;-82
2022/06/27 03:26:26;;;;;;;6.05;4.30;;;14.90;99.90;;;;;;5227668;28;20060;-75
2022/06/27 03:28:57;;;;;;;5.15;3.70;;;14.80;99.90;;;;;;5229128;28;20021;-82
2022/06/27 03:31:28;;;;;;;6.53;4.15;;;14.80;99.90;;;;;;5229018;28;20051;-74
2022/06/27 03:33:58;;;;;;;5.55;3.80;;;15.00;99.90;;;;;;5229401;28;20025;-82
2022/06/27 03:36:29;;;;;;;5.35;3.60;;;14.90;99.90;;;;;;5227841;28;20551;-75
2022/06/27 03:39:00;;;;;;;7.47;4.13;;;15.00;99.90;;;;;;5228834;28;20353;-75
2022/06/27 03:41:31;;;;;;;6.35;4.10;;;15.30;99.90;;;;;;5229352;28;20028;-75
2022/06/27 03:44:04;;;;;;;5.75;4.13;;;15.40;99.90;;;;;;5229079;28;20457;-74
2022/06/27 03:46:36;;;;;;;6.50;4.72;;;15.60;99.90;;;;;;5228984;28;20353;-75
2022/06/27 03:51:57;;;;;;;5.22;3.88;;;15.70;99.90;;;;;;5228997;28;20088;-82
2022/06/27 03:54:27;;;;;;;4.95;3.70;;;15.70;99.90;;;;;;5228690;28;20436;-75
2022/06/27 03:56:58;;;;;;;5.85;4.10;;;15.60;99.90;;;;;;5228513;28;20104;-83
2022/06/27 03:59:29;;;;;;;7.60;3.38;;;16.00;99.90;;;;;;5228784;28;20354;-75
2022/06/27 04:02:00;;;;;;;5.22;3.78;;;15.80;99.90;;;;;;5228594;28;20431;-75
2022/06/27 04:04:31;;;;;;;5.88;3.00;;;15.80;99.90;;;;;;5228463;28;20128;-75
2022/06/27 04:07:02;;;;;;;5.20;2.85;;;15.80;99.90;;;;;;5228683;28;20067;-83
2022/06/27 04:09:33;;;;;;;4.90;2.90;;;15.60;99.90;;;;;;5228296;28;20029;-78
2022/06/27 04:12:04;;;;;;;4.53;3.30;;;15.90;99.90;;;;;;5228446;28;20484;-75
2022/06/27 04:14:35;;;;;;;4.78;3.08;;;16.00;99.90;;;;;;5228725;28;20036;-75
2022/06/27 04:17:05;;;;;;;5.28;3.13;;;15.90;99.90;;;;;;5228053;28;20489;-75
2022/06/27 04:19:36;;;;;;;6.00;2.80;;;15.90;99.90;;;;;;5228473;28;20032;-83
2022/06/27 04:22:10;;;;;;;4.35;2.88;;;15.90;99.90;;;;;;5228376;28;20029;-75
2022/06/27 04:24:41;;;;;;;4.65;3.00;;;15.70;99.90;;;;;;5228255;28;20487;-78
2022/06/27 04:27:12;;;;;;;3.75;3.10;;;16.20;99.90;;;;;;5227798;28;20127;-75
2022/06/27 04:29:43;;;;;;;5.45;3.65;;;16.30;99.90;;;;;;5228231;28;20112;-83
2022/06/27 04:32:18;;;;;;;6.10;3.10;;;16.40;99.90;;;;;;5227962;28;20037;-81
2022/06/27 04:34:49;;;;;;;5.07;3.05;;;16.10;99.90;;;;;;5228091;28;20041;-74
2022/06/27 04:37:21;;;;;;;7.75;3.50;;;16.20;99.90;;;;;;5227856;28;20115;-76
2022/06/27 04:39:52;;;;;;;4.35;3.22;;;16.70;99.90;;;;;;5228116;28;20025;-74
2022/06/27 04:42:24;;;;;;;5.25;2.75;;;16.60;99.90;;;;;;5227975;28;20021;-75
2022/06/27 04:44:54;;;;;;;5.97;3.30;;;16.90;99.90;;;;;;5228048;28;20099;-79
2022/06/27 04:47:25;;;;;;;4.53;3.10;;;17.40;99.90;;;;;;5227929;28;20122;-75
2022/06/27 04:49:56;;;;;;;6.25;3.75;;;17.20;99.90;;;;;;5227897;28;20426;-83
2022/06/27 04:52:27;;;;;;;4.63;3.63;;;17.60;99.90;;;;;;5227731;28;20029;-75
2022/06/27 04:54:59;;;;;;;5.40;3.08;;;18.00;99.90;;;;;;5227582;28;20350;-75
2022/06/27 04:57:31;;;;;;;5.47;3.10;;;18.10;99.90;;;;;;5227724;28;20366;-76
2022/06/27 05:00:05;;;;;;;4.72;3.13;;;18.30;99.90;;;;;;5227581;28;20029;-75
2022/06/27 05:02:36;;;;;;;5.63;3.17;;;18.70;99.90;;;;;;5227171;28;20082;-83
2022/06/27 05:05:08;;;;;;;9.23;3.70;;;19.10;99.90;;;;;;5227700;28;20033;-75
2022/06/27 05:07:39;;;;;;;4.85;2.85;;;19.50;99.90;;;;;;5227549;28;20017;-83
2022/06/27 05:10:10;;;;;;;5.10;3.70;;;19.10;99.90;;;;;;5227434;28;20108;-79
2022/06/27 05:12:41;;;;;;;9.63;3.38;;;19.20;99.90;;;;;;5227501;28;20028;-75
2022/06/27 05:15:13;;;;;;;5.63;3.63;;;19.70;99.90;;;;;;5227426;28;20467;-83
2022/06/27 05:17:44;;;;;;;5.97;3.55;;;19.30;99.90;;;;;;5227372;28;20542;-82
2022/06/27 05:20:17;;;;;;;4.78;3.47;;;19.20;99.90;;;;;;5227461;28;20108;-83
2022/06/27 05:22:48;;;;;;;9.70;4.07;;;19.60;99.90;;;;;;5227335;28;20178;-84
2022/06/27 05:25:18;;;;;;;5.13;3.53;;;19.60;99.90;;;;;;5226354;28;20021;-81
2022/06/27 05:27:50;;;;;;;5.93;3.85;;;19.50;99.90;;;;;;5227147;28;20087;-74
2022/06/27 05:30:20;;;;;;;5.05;3.78;;;19.50;99.90;;;;;;5227223;28;20029;-75
2022/06/27 05:32:51;;;;;;;5.00;3.38;;;19.70;99.90;;;;;;5227320;28;20036;-75
2022/06/27 05:35:22;;;;;;;6.60;3.60;;;19.70;99.90;;;;;;5227458;28;20036;-81
2022/06/27 05:37:56;;;;;;;4.68;3.30;;;19.90;99.90;;;;;;5227162;28;20026;-80
2022/06/27 05:40:27;;;;;;;4.93;3.70;;;20.30;99.90;;;;;;5227355;28;20021;-74
2022/06/27 05:42:58;;;;;;;8.45;3.65;;;20.40;99.90;;;;;;5225858;28;20040;-82
2022/06/27 05:45:29;;;;;;;7.30;3.30;;;20.60;99.90;;;;;;5225919;28;20380;-76
2022/06/27 05:48:02;;;;;;;6.22;3.80;;;20.90;99.90;;;;;;5226890;28;20100;-75
2022/06/27 05:50:33;;;;;;;4.55;3.78;;;21.10;99.90;;;;;;5227154;28;20492;-82
2022/06/27 05:53:06;;;;;;;5.05;3.80;;;21.80;99.90;;;;;;5227048;28;20021;-75
2022/06/27 05:55:38;;;;;;;6.68;3.70;;;21.80;99.90;;;;;;5226765;28;20493;-75
2022/06/27 05:58:10;;;;;;;8.05;4.50;;;21.80;99.90;;;;;;5227013;28;20114;-74
2022/06/27 06:00:40;;;;;;;9.60;4.78;;;22.10;99.90;;;;;;5227174;28;20025;-77
2022/06/27 06:03:11;;;;;;;7.25;4.15;;;22.40;99.90;;;;;;5227028;28;20063;-75
2022/06/27 06:05:44;;;;;;;8.98;4.43;;;22.70;99.90;;;;;;5227038;28;20369;-82
2022/06/27 06:08:15;;;;;;;9.65;4.47;;;22.70;99.90;;;;;;5226923;28;20025;-74
2022/06/27 06:10:46;;;;;;;13.30;4.35;;;23.00;99.90;;;;;;5226840;28;20021;-75
2022/06/27 06:13:17;;;;;;;12.82;4.95;;;22.90;99.90;;;;;;5226896;28;20543;-74
2022/06/27 06:15:48;;;;;;;13.02;4.32;;;22.90;99.90;;;;;;5229208;28;20583;-82
2022/06/27 06:18:19;;;;;;;8.00;4.55;;;22.70;99.90;;;;;;5230699;28;20017;-75
2022/06/27 06:20:50;;;;;;;9.07;4.78;;;22.60;99.90;;;;;;5230550;28;20029;-82
2022/06/27 06:23:21;;;;;;;5.75;4.57;;;22.70;99.90;;;;;;5230352;28;20036;-80
2022/06/27 06:25:52;;;;;;;6.90;4.63;;;22.80;99.90;;;;;;5230148;28;20052;-82
2022/06/27 06:28:23;;;;;;;9.27;5.05;;;23.10;99.90;;;;;;5230532;28;20029;-76
2022/06/27 06:30:54;;;;;;;6.07;4.63;;;23.20;99.90;;;;;;5230357;28;20021;-82
2022/06/27 06:33:26;;;;;;;6.18;4.18;;;23.20;99.90;;;;;;5230413;28;20043;-75
2022/06/27 06:35:57;;;;;;;12.57;4.53;;;23.80;99.90;;;;;;5230130;28;20531;-75
2022/06/27 06:38:29;;;;;;;7.43;4.53;;;23.60;99.90;;;;;;5230130;28;20052;-82
2022/06/27 06:41:00;;;;;;;5.95;4.05;;;23.60;99.90;;;;;;5230353;28;20079;-74
2022/06/27 06:43:31;;;;;;;4.85;3.92;;;23.90;99.90;;;;;;5230270;28;20021;-82
2022/06/27 06:46:02;;;;;;;6.28;3.80;;;24.00;99.90;;;;;;5230016;28;20476;-74
2022/06/27 06:48:32;;;;;;;5.47;4.00;;;23.70;99.90;;;;;;5229970;28;20385;-81
2022/06/27 06:51:05;;;;;;;4.40;3.90;;;23.70;99.90;;;;;;5229849;28;20983;-77
2022/06/27 06:53:36;;;;;;;8.27;3.58;;;24.50;99.90;;;;;;5229697;28;20037;-75
2022/06/27 06:56:07;;;;;;;5.45;3.95;;;25.00;99.90;;;;;;5229736;28;20029;-74
2022/06/27 06:58:38;;;;;;;4.75;3.55;;;25.10;99.90;;;;;;5229828;28;20052;-83
2022/06/27 07:01:09;;;;;;;9.07;4.10;;;25.10;99.90;;;;;;5229754;28;20025;-74
2022/06/27 07:03:40;;;;;;;4.90;3.83;;;24.50;99.90;;;;;;5230017;28;20116;-79
2022/06/27 07:06:12;;;;;;;6.43;3.60;;;24.40;99.90;;;;;;5229674;28;20385;-84
2022/06/27 07:08:44;;;;;;;7.97;3.70;;;24.60;99.90;;;;;;5229701;28;20086;-83
2022/06/27 07:11:15;;;;;;;7.93;3.58;;;24.10;99.90;;;;;;5229553;28;20029;-82
2022/06/27 07:13:46;;;;;;;4.93;4.10;;;23.50;99.90;;;;;;5229576;28;20025;-75
2022/06/27 07:16:21;;;;;;;5.35;3.67;;;24.00;99.90;;;;;;5228025;28;20043;-83
2022/06/27 07:18:56;;;;;;;5.95;3.67;;;24.30;99.90;;;;;;5229200;28;20107;-76
2022/06/27 07:21:31;;;;;;;8.13;4.40;;;24.80;99.90;;;;;;5229549;28;20361;-74
2022/06/27 07:24:03;;;;;;;4.93;3.80;;;24.20;99.90;;;;;;5229226;28;20033;-74
2022/06/27 07:26:35;;;;;;;7.40;3.75;;;24.50;99.90;;;;;;5228793;28;20049;-74
2022/06/27 07:29:06;;;;;;;5.38;3.60;;;24.60;99.90;;;;;;5229097;28;20047;-82
2022/06/27 07:31:37;;;;;;;5.60;3.50;;;24.30;99.90;;;;;;5229217;28;20170;-75
2022/06/27 07:34:08;;;;;;;3.70;3.38;;;24.40;99.90;;;;;;5229140;28;20112;-74
2022/06/27 07:36:39;;;;;;;4.90;3.40;;;24.10;99.90;;;;;;5228953;28;20043;-82
2022/06/27 07:39:09;;;;;;;6.25;3.53;;;23.80;99.90;;;;;;5228960;28;20017;-75
2022/06/27 07:41:40;;;;;;;12.25;3.88;;;24.20;99.90;;;;;;5228902;28;20083;-74
2022/06/27 07:44:11;;;;;;;6.47;3.90;;;23.90;99.90;;;;;;5228823;28;20025;-83
2022/06/27 07:46:42;;;;;;;5.43;3.85;;;24.00;99.90;;;;;;5229069;28;20021;-80
2022/06/27 07:49:13;;;;;;;7.60;3.55;;;23.90;99.90;;;;;;5228726;28;20035;-74
2022/06/27 07:51:43;;;;;;;7.40;3.58;;;24.20;99.90;;;;;;5228892;28;20035;-74
2022/06/27 07:54:14;;;;;;;3.85;3.38;;;24.20;99.90;;;;;;5228609;28;20024;-74
2022/06/27 07:56:46;;;;;;;5.00;4.18;;;24.50;99.90;;;;;;5228652;28;20044;-84
2022/06/27 07:59:18;;;;;;;5.35;3.45;;;24.20;99.90;;;;;;5228489;28;20032;-84
2022/06/27 08:01:49;;;;;;;3.97;3.33;;;24.30;99.90;;;;;;5228513;28;20414;-74
2022/06/27 08:04:20;;;;;;;8.43;3.80;;;24.60;99.90;;;;;;5228454;28;20103;-74
2022/06/27 08:06:53;;;;;;;5.63;3.10;;;24.60;99.90;;;;;;5228359;28;20028;-75
2022/06/27 08:09:24;;;;;;;4.68;3.55;;;24.90;99.90;;;;;;5228443;28;20025;-75
2022/06/27 08:11:55;;;;;;;4.47;3.15;;;25.60;99.90;;;;;;5228153;28;20425;-84
2022/06/27 08:14:27;;;;;;;5.80;3.08;;;25.60;99.90;;;;;;5228349;28;20021;-77
2022/06/27 08:17:00;;;;;;;4.18;3.28;;;25.70;99.90;;;;;;5228222;28;20112;-84
2022/06/27 08:19:30;;;;;;;9.70;3.03;;;26.10;99.90;;;;;;5228377;28;20021;-81
2022/06/27 08:22:02;;;;;;;5.88;3.20;;;25.40;99.90;;;;;;5228038;28;20079;-75
2022/06/27 08:24:33;;;;;;;4.97;2.78;;;25.40;99.90;;;;;;5228050;28;20028;-73
2022/06/27 08:27:04;;;;;;;6.55;3.00;;;25.80;99.90;;;;;;5227706;28;20052;-84
2022/06/27 08:29:35;;;;;;;5.25;2.83;;;25.20;99.90;;;;;;5227969;28;20033;-84
2022/06/27 08:32:06;;;;;;;6.18;2.72;;;25.60;99.90;;;;;;5227870;28;20470;-74
2022/06/27 08:34:38;;;;;;;5.22;3.22;;;25.80;99.90;;;;;;5227987;28;20453;-74
2022/06/27 08:37:09;;;;;;;6.90;2.60;;;26.30;99.90;;;;;;5226019;28;20059;-84
2022/06/27 08:39:39;;;;;;;4.93;2.40;;;26.40;99.90;;;;;;5227959;28;20025;-84
2022/06/27 08:42:10;;;;;;;4.68;2.50;;;25.60;99.90;;;;;;5227937;28;20071;-79
2022/06/27 08:44:41;;;;;;;2.55;2.15;;;26.40;99.90;;;;;;5227857;28;20032;-74
2022/06/27 08:47:16;;;;;;;6.40;2.50;;;26.20;99.90;;;;;;5227554;28;20070;-74
2022/06/27 08:49:52;;;;;;;5.03;2.53;;;26.50;99.90;;;;;;5227694;28;20013;-79
2022/06/27 08:52:24;;;;;;;4.88;3.08;;;26.70;99.90;;;;;;5227660;28;20029;-74
2022/06/27 08:54:56;;;;;;;3.05;2.40;;;26.80;99.90;;;;;;5227656;28;20021;-84
2022/06/27 08:57:27;;;;;;;5.32;2.40;;;26.70;99.90;;;;;;5227840;28;20033;-83
2022/06/27 08:59:59;;;;;;;4.93;1.95;;;26.50;99.90;;;;;;5227611;28;20140;-83
2022/06/27 09:02:30;;;;;;;8.32;2.75;;;27.00;99.90;;;;;;5227405;28;20091;-80
2022/06/27 09:05:02;;;;;;;8.43;2.50;;;27.10;99.90;;;;;;5227372;28;20036;-74
2022/06/27 09:07:52;;;;;;;4.60;2.40;;;26.80;99.90;;;;;;5227589;28;20084;-74
2022/06/27 09:10:39;;;;;;;9.10;2.83;;;27.00;99.90;;;;;;5227390;28;20017;-74
2022/06/27 09:13:15;;;;;;;4.60;2.42;;;26.80;99.90;;;;;;5227303;28;20036;-74
2022/06/27 09:16:08;;;;;;;4.15;2.20;;;27.40;99.90;;;;;;5227392;28;20037;-74
2022/06/27 09:18:39;;;;;;;5.10;2.17;;;27.20;99.90;;;;;;5226239;28;20029;-74
2022/06/27 09:21:13;;;;;;;11.55;2.70;;;27.20;99.90;;;;;;5227467;28;20046;-74
2022/06/27 09:24:01;;;;;;;6.18;2.40;;;27.10;99.90;;;;;;5227222;28;20017;-82
2022/06/27 09:26:34;;;;;;;3.55;2.20;;;27.30;99.90;;;;;;5227191;28;20045;-74
2022/06/27 09:29:08;;;;;;;2.90;2.05;;;27.60;99.90;;;;;;5227172;28;20200;-74
2022/06/27 09:31:46;;;;;;;5.60;2.38;;;27.20;99.90;;;;;;5227510;28;20017;-84
2022/06/27 09:34:23;;;;;;;5.10;2.72;;;27.40;99.90;;;;;;5227202;28;20067;-83
2022/06/27 09:36:57;;;;;;;4.43;2.53;;;27.70;99.90;;;;;;5227004;28;20120;-83
2022/06/27 09:39:35;;;;;;;3.40;2.15;;;27.60;99.90;;;;;;5227211;28;20068;-83
2022/06/27 09:42:13;;;;;;;6.38;2.38;;;27.30;99.90;;;;;;5227177;28;20021;-83
2022/06/27 09:44:45;;;;;;;4.45;2.78;;;27.50;99.90;;;;;;5226986;28;20059;-75
2022/06/27 09:47:19;;;;;;;6.38;2.10;;;27.70;99.90;;;;;;5227049;28;20104;-74
2022/06/27 09:49:52;;;;;;;5.93;2.67;;;27.90;99.90;;;;;;5229842;28;20096;-74
2022/06/27 09:52:24;;;;;;;3.00;2.42;;;27.90;99.90;;;;;;5231101;28;20017;-77
2022/06/27 09:54:55;;;;;;;4.88;2.42;;;27.50;99.90;;;;;;5231063;28;20032;-83
2022/06/27 09:57:27;;;;;;;6.68;2.35;;;27.50;99.90;;;;;;5230593;28;20036;-75
2022/06/27 09:59:59;;;;;;;7.60;2.20;;;27.60;99.90;;;;;;5230904;28;20033;-82
2022/06/27 10:02:30;;;;;;;6.57;2.30;;;27.80;99.90;;;;;;5230922;28;20100;-74
2022/06/27 10:05:01;;;;;;;4.60;2.75;;;28.00;99.90;;;;;;5230865;28;20111;-83
2022/06/27 10:07:34;;;;;;;4.65;2.67;;;28.10;99.90;;;;;;5230783;28;20032;-84
2022/06/27 10:10:06;;;;;;;6.32;2.35;;;28.20;99.90;;;;;;5230860;28;20036;-74
2022/06/27 10:12:37;;;;;;;5.22;2.42;;;28.20;99.90;;;;;;5230603;28;20024;-74
2022/06/27 10:15:10;;;;;;;3.92;2.15;;;28.20;99.90;;;;;;5230718;28;20028;-74
2022/06/27 10:17:46;;;;;;;4.88;2.30;;;27.20;99.90;;;;;;5230510;28;20033;-74
2022/06/27 10:20:38;;;;;;;6.03;2.90;;;27.90;99.90;;;;;;5229288;28;20457;-84
2022/06/27 10:23:09;;;;;;;4.43;2.35;;;28.30;99.90;;;;;;5230350;28;20043;-82
2022/06/27 10:25:41;;;;;;;9.95;3.08;;;28.40;99.90;;;;;;5230014;28;20471;-74
2022/06/27 10:28:15;;;;;;;7.65;2.10;;;28.20;99.90;;;;;;5230389;28;20045;-84
2022/06/27 10:30:49;;;;;;;2.10;1.90;;;28.70;99.90;;;;;;5230332;28;20027;-74
2022/06/27 10:33:25;;;;;;;5.43;2.70;;;28.60;99.90;;;;;;5230120;28;20035;-83
2022/06/27 10:35:59;;;;;;;6.32;2.50;;;28.20;99.90;;;;;;5230146;28;20146;-75
2022/06/27 10:38:42;;;;;;;6.05;2.25;;;28.40;99.90;;;;;;5230080;28;20090;-74
2022/06/27 10:41:19;;;;;;;6.43;2.50;;;28.70;99.90;;;;;;5230150;28;20017;-84
2022/06/27 10:43:57;;;;;;;8.05;2.60;;;28.70;99.90;;;;;;5230037;28;20120;-79
2022/06/27 10:46:27;;;;;;;6.95;2.67;;;28.70;99.90;;;;;;5230150;28;20473;-80
2022/06/27 10:48:58;;;;;;;4.25;2.30;;;28.30;99.90;;;;;;5229951;28;20052;-74
2022/06/27 10:51:34;;;;;;;3.72;2.40;;;28.40;99.90;;;;;;5230256;28;20498;-74
2022/06/27 10:54:05;;;;;;;3.38;2.33;;;28.70;99.90;;;;;;5229651;28;20096;-84
2022/06/27 10:56:36;;;;;;;5.25;2.33;;;28.30;99.90;;;;;;5229724;28;20131;-84
2022/06/27 10:59:27;;;;;;;3.22;2.15;;;28.70;99.90;;;;;;5228527;28;20033;-81
2022/06/27 11:02:03;;;;;;;6.47;2.78;;;28.60;99.90;;;;;;5228872;28;20032;-79
2022/06/27 11:04:36;;;;;;;4.72;2.47;;;29.00;99.90;;;;;;5229692;28;20021;-84
2022/06/27 11:07:09;;;;;;;7.28;2.67;;;28.70;99.90;;;;;;5229550;28;20037;-83
2022/06/27 11:09:45;;;;;;;4.10;2.22;;;28.90;99.90;;;;;;5229320;28;20028;-74
2022/06/27 11:12:18;;;;;;;3.97;2.20;;;29.10;99.90;;;;;;5229764;28;20029;-73
2022/06/27 11:15:00;;;;;;;6.22;2.40;;;28.30;99.90;;;;;;5229481;28;20053;-74
2022/06/27 11:17:41;;;;;;;5.25;2.40;;;28.40;99.90;;;;;;5229217;28;20029;-74
2022/06/27 11:20:14;;;;;;;6.28;2.42;;;29.30;99.90;;;;;;5229434;28;20024;-83
2022/06/27 11:22:48;;;;;;;7.50;2.67;;;28.80;99.90;;;;;;5229339;28;20029;-79
2022/06/27 11:25:20;;;;;;;4.90;2.30;;;29.00;99.90;;;;;;5229230;28;20029;-75
2022/06/27 11:27:53;;;;;;;6.20;2.38;;;28.50;99.90;;;;;;5229166;28;20048;-74
2022/06/27 11:33:29;;;;;;;3.33;2.15;;;28.40;99.90;;;;;;5229490;28;20443;-74
2022/06/27 11:36:01;;;;;;;6.25;2.20;;;28.80;99.90;;;;;;5228993;28;20060;-74
2022/06/27 11:38:41;;;;;;;5.38;2.33;;;28.60;99.90;;;;;;5228896;28;20028;-83
2022/06/27 11:41:16;;;;;;;7.75;2.38;;;29.10;99.90;;;;;;5228985;28;20453;-74
2022/06/27 11:43:50;;;;;;;5.30;2.38;;;28.90;99.90;;;;;;5228932;28;20060;-73
2022/06/27 11:46:25;;;;;;;7.57;2.28;;;29.20;99.90;;;;;;5228961;28;20020;-75
2022/06/27 11:48:59;;;;;;;4.88;2.15;;;29.00;99.90;;;;;;5228849;28;20039;-74
2022/06/27 11:51:38;;;;;;;5.00;2.05;;;29.40;99.90;;;;;;5228591;28;20029;-84
2022/06/27 11:54:20;;;;;;;4.35;2.20;;;28.60;99.90;;;;;;5228527;28;20059;-83
2022/06/27 11:56:55;;;;;;;4.40;2.08;;;28.80;99.90;;;;;;5228472;28;20057;-81
2022/06/27 11:59:25;;;;;;;3.08;2.10;;;28.70;99.90;;;;;;5228535;28;20043;-74
2022/06/27 12:02:03;;;;;;;2.85;2.00;;;29.30;99.90;;;;;;5228693;28;20037;-74
2022/06/27 12:04:34;;;;;;;5.25;2.03;;;29.20;99.90;;;;;;5228551;28;20066;-77
2022/06/27 12:07:05;;;;;;;3.40;1.75;;;28.60;99.90;;;;;;5228523;28;20079;-73
2022/06/27 12:09:51;;;;;;;7.97;2.20;;;29.00;99.90;;;;;;5228326;28;20033;-74
2022/06/27 12:12:27;;;;;;;5.10;2.55;;;28.50;99.90;;;;;;5227390;28;20032;-82
2022/06/27 12:14:58;;;;;;;3.80;2.03;;;29.20;99.90;;;;;;5228260;28;20414;-74
2022/06/27 12:17:38;;;;;;;6.00;2.13;;;28.80;99.90;;;;;;5227975;28;20071;-83
2022/06/27 12:20:09;;;;;;;3.92;2.15;;;29.10;99.90;;;;;;5228247;28;20071;-83
2022/06/27 12:22:40;;;;;;;5.88;2.05;;;28.80;99.90;;;;;;5228143;28;20107;-74
2022/06/27 12:25:11;;;;;;;5.75;2.17;;;28.40;99.90;;;;;;5228195;28;20096;-83
2022/06/27 12:27:42;;;;;;;4.13;2.38;;;28.30;99.90;;;;;;5227592;28;20056;-83
2022/06/27 12:30:13;;;;;;;6.13;2.33;;;28.80;99.90;;;;;;5228100;28;20550;-84
2022/06/27 12:32:44;;;;;;;11.63;3.45;;;28.80;99.90;;;;;;5227722;28;20024;-74
2022/06/27 12:35:15;;;;;;;6.93;2.63;;;29.00;99.90;;;;;;5227946;28;20369;-74
2022/06/27 12:37:46;;;;;;;3.88;2.03;;;28.40;99.90;;;;;;5227689;28;20071;-74
2022/06/27 12:40:18;;;;;;;13.98;2.60;;;29.00;99.90;;;;;;5227881;28;20021;-82
2022/06/27 12:42:48;;;;;;;4.05;2.15;;;28.50;99.90;;;;;;5227805;28;20032;-77
2022/06/27 12:45:20;;;;;;;7.95;2.30;;;28.50;99.90;;;;;;5227845;28;20021;-74
2022/06/27 12:47:51;;;;;;;6.55;2.47;;;28.50;99.90;;;;;;5227791;28;20032;-83
2022/06/27 12:50:21;;;;;;;4.07;1.90;;;29.10;99.90;;;;;;5227517;28;20020;-73
2022/06/27 12:52:52;;;;;;;4.65;1.90;;;28.10;99.90;;;;;;5227556;28;20100;-83
2022/06/27 12:55:23;;;;;;;6.35;1.90;;;28.30;99.90;;;;;;5227409;28;20484;-74
2022/06/27 12:57:54;;;;;;;3.88;1.98;;;28.70;99.90;;;;;;5227785;28;20044;-84
2022/06/27 13:00:25;;;;;;;5.22;2.00;;;29.00;99.90;;;;;;5227492;28;20029;-82
2022/06/27 13:02:56;;;;;;;3.63;1.55;;;28.80;99.90;;;;;;5227507;28;20098;-75
2022/06/27 13:05:28;;;;;;;2.55;1.88;;;29.30;99.90;;;;;;5227484;28;20025;-74
2022/06/27 13:07:59;;;;;;;5.03;2.20;;;29.20;99.90;;;;;;5227548;28;20053;-74
2022/06/27 13:10:30;;;;;;;3.90;2.10;;;28.30;99.90;;;;;;5227355;28;20083;-74
2022/06/27 13:13:02;;;;;;;6.68;2.13;;;29.20;99.90;;;;;;5227281;28;20029;-74
2022/06/27 13:15:35;;;;;;;3.17;2.08;;;29.20;99.90;;;;;;5227304;28;20357;-84
2022/06/27 13:18:07;;;;;;;3.75;1.77;;;28.50;99.90;;;;;;5227295;28;20036;-73
2022/06/27 13:20:37;;;;;;;7.47;2.15;;;28.70;99.90;;;;;;5227255;28;20025;-73
2022/06/27 13:23:08;;;;;;;4.30;1.88;;;28.40;99.90;;;;;;5227296;28;20032;-74